SWA593 KPHX-MMUN
Flight info
| Callsign | SWA593 |
|---|---|
| Flight time | 3h 15m |
| Altitude | 37000 |
| Route | ECLPS1 PHASE DCT ELP DCT KOBLE DCT KINEY/N0439F390 DCT MAM UT22 VESKO UT11 URTEL UT47 XUDUN XUDUN1A |
| Aircraft | A20N/M-SDE2E3FGHIRWXY/LB1 |
Departure
| Time | 2026-05-04 21:26 |
|---|---|
| Airport | Phoenix Sky Harbor International Airport (KPHX) |
Arrival
| Time | 2026-05-05 00:41 |
|---|---|
| Airport | Cancún International Airport (MMUN) |
| Time | Latitude | Longitude | Altitude | Speed | Heading |
|---|---|---|---|---|---|
| 2026-05-04 21:16 | 33.43378 | -112.01191 | 1132 ft | 0 kts | 11° |
| 2026-05-04 21:20 | 33.43369 | -112.01194 | 1135 ft | 4 kts | 17° |
| 2026-05-04 21:21 | 33.43345 | -112.01209 | 1135 ft | 4 kts | 44° |
| 2026-05-04 21:21 | 33.43326 | -112.01236 | 1134 ft | 5 kts | 53° |
| 2026-05-04 21:21 | 33.43296 | -112.01294 | 1135 ft | 8 kts | 86° |
| 2026-05-04 21:21 | 33.43296 | -112.01305 | 1131 ft | 0 kts | 94° |
| 2026-05-04 21:22 | 33.43295 | -112.01304 | 1134 ft | 1 kts | 94° |
| 2026-05-04 21:23 | 33.43290 | -112.01139 | 1130 ft | 27 kts | 90° |
| 2026-05-04 21:23 | 33.43288 | -112.00903 | 1132 ft | 29 kts | 91° |
| 2026-05-04 21:23 | 33.43287 | -112.00653 | 1134 ft | 31 kts | 90° |
| 2026-05-04 21:23 | 33.43283 | -112.00395 | 1133 ft | 31 kts | 91° |
| 2026-05-04 21:24 | 33.43277 | -112.00129 | 1131 ft | 32 kts | 91° |
| 2026-05-04 21:24 | 33.43282 | -111.99856 | 1131 ft | 33 kts | 92° |
| 2026-05-04 21:24 | 33.43278 | -111.99576 | 1131 ft | 34 kts | 89° |
| 2026-05-04 21:24 | 33.43282 | -111.99434 | 1131 ft | 11 kts | 88° |
| 2026-05-04 21:25 | 33.43220 | -111.99352 | 1134 ft | 18 kts | 176° |
| 2026-05-04 21:25 | 33.43114 | -111.99381 | 1138 ft | 15 kts | 240° |
| 2026-05-04 21:25 | 33.43106 | -111.99503 | 1135 ft | 15 kts | 269° |
| 2026-05-04 21:25 | 33.43104 | -111.99878 | 1134 ft | 85 kts | 269° |
| 2026-05-04 21:26 | 33.43107 | -112.00878 | 1131 ft | 152 kts | 270° |
| 2026-05-04 21:26 | 33.43111 | -112.01803 | 1226 ft | 180 kts | 270° |
| 2026-05-04 21:26 | 33.43113 | -112.03933 | 2127 ft | 199 kts | 265° |
| 2026-05-04 21:26 | 33.42887 | -112.05551 | 3126 ft | 195 kts | 255° |
| 2026-05-04 21:27 | 33.42629 | -112.06594 | 3730 ft | 201 kts | 250° |
| 2026-05-04 21:27 | 33.42117 | -112.08207 | 4516 ft | 217 kts | 246° |
| 2026-05-04 21:27 | 33.41514 | -112.09992 | 4939 ft | 249 kts | 249° |
| 2026-05-04 21:27 | 33.40942 | -112.12145 | 5000 ft | 294 kts | 252° |
| 2026-05-04 21:28 | 33.40225 | -112.14601 | 5055 ft | 330 kts | 240° |
| 2026-05-04 21:28 | 33.38732 | -112.16674 | 5887 ft | 328 kts | 216° |
| 2026-05-04 21:28 | 33.36730 | -112.17761 | 7356 ft | 310 kts | 193° |
| 2026-05-04 21:28 | 33.34632 | -112.17763 | 8879 ft | 298 kts | 171° |
| 2026-05-04 21:29 | 33.32701 | -112.17011 | 10271 ft | 286 kts | 166° |
| 2026-05-04 21:29 | 33.30832 | -112.16225 | 11172 ft | 289 kts | 166° |
| 2026-05-04 21:29 | 33.28935 | -112.15102 | 11418 ft | 321 kts | 152° |
| 2026-05-04 21:29 | 33.27154 | -112.13289 | 11635 ft | 351 kts | 140° |
| 2026-05-04 21:30 | 33.25403 | -112.11113 | 11849 ft | 376 kts | 134° |
| 2026-05-04 21:30 | 33.23905 | -112.08426 | 12052 ft | 403 kts | 121° |
| 2026-05-04 21:30 | 33.22876 | -112.05216 | 12247 ft | 426 kts | 110° |
| 2026-05-04 21:30 | 33.21716 | -112.00646 | 12754 ft | 440 kts | 110° |
| 2026-05-04 21:31 | 33.20192 | -111.94731 | 13705 ft | 450 kts | 110° |
| 2026-05-04 21:31 | 33.19254 | -111.91147 | 14236 ft | 454 kts | 110° |
| 2026-05-04 21:31 | 33.18303 | -111.87532 | 14776 ft | 459 kts | 110° |
| 2026-05-04 21:32 | 33.17356 | -111.83934 | 15317 ft | 462 kts | 110° |
| 2026-05-04 21:32 | 33.16387 | -111.80258 | 15845 ft | 467 kts | 111° |
| 2026-05-04 21:32 | 33.15393 | -111.76492 | 16347 ft | 471 kts | 111° |
| 2026-05-04 21:32 | 33.14416 | -111.72797 | 16893 ft | 475 kts | 111° |
| 2026-05-04 21:33 | 33.13420 | -111.69033 | 17396 ft | 478 kts | 111° |
| 2026-05-04 21:33 | 33.12413 | -111.65235 | 17962 ft | 481 kts | 111° |
| 2026-05-04 21:33 | 33.11400 | -111.61419 | 18405 ft | 485 kts | 111° |
| 2026-05-04 21:33 | 33.10379 | -111.57574 | 18837 ft | 487 kts | 112° |
| 2026-05-04 21:34 | 33.09352 | -111.53708 | 19245 ft | 491 kts | 112° |
| 2026-05-04 21:34 | 33.08315 | -111.49813 | 19642 ft | 494 kts | 112° |
| 2026-05-04 21:34 | 33.07129 | -111.45979 | 20029 ft | 492 kts | 119° |
| 2026-05-04 21:34 | 33.05575 | -111.42352 | 20410 ft | 490 kts | 127° |
| 2026-05-04 21:35 | 33.03736 | -111.38947 | 20797 ft | 490 kts | 130° |
| 2026-05-04 21:35 | 33.01860 | -111.35544 | 21172 ft | 493 kts | 130° |
| 2026-05-04 21:35 | 32.99976 | -111.32115 | 21514 ft | 497 kts | 130° |
| 2026-05-04 21:35 | 32.98081 | -111.28662 | 21883 ft | 500 kts | 130° |
| 2026-05-04 21:36 | 32.96171 | -111.25183 | 22242 ft | 503 kts | 130° |
| 2026-05-04 21:36 | 32.94250 | -111.21688 | 22593 ft | 506 kts | 130° |
| 2026-05-04 21:36 | 32.92317 | -111.18174 | 22927 ft | 509 kts | 130° |
| 2026-05-04 21:36 | 32.90367 | -111.14634 | 23258 ft | 513 kts | 130° |
| 2026-05-04 21:37 | 32.88405 | -111.11076 | 23549 ft | 516 kts | 130° |
| 2026-05-04 21:37 | 32.86429 | -111.07495 | 23803 ft | 519 kts | 130° |
| 2026-05-04 21:37 | 32.84439 | -111.03892 | 24065 ft | 523 kts | 130° |
| 2026-05-04 21:37 | 32.82436 | -111.00271 | 24320 ft | 526 kts | 130° |
| 2026-05-04 21:38 | 32.80420 | -110.96627 | 24569 ft | 528 kts | 130° |
| 2026-05-04 21:38 | 32.78396 | -110.92973 | 24793 ft | 531 kts | 130° |
| 2026-05-04 21:38 | 32.76360 | -110.89301 | 24970 ft | 533 kts | 130° |
| 2026-05-04 21:38 | 32.74313 | -110.85614 | 25120 ft | 535 kts | 130° |
| 2026-05-04 21:39 | 32.72261 | -110.81921 | 25267 ft | 537 kts | 130° |
| 2026-05-04 21:39 | 32.70201 | -110.78219 | 25411 ft | 538 kts | 130° |
| 2026-05-04 21:39 | 32.68134 | -110.74507 | 25528 ft | 540 kts | 130° |
| 2026-05-04 21:39 | 32.66137 | -110.70719 | 25641 ft | 546 kts | 125° |
| 2026-05-04 21:40 | 32.64471 | -110.66636 | 25735 ft | 554 kts | 118° |
| 2026-05-04 21:40 | 32.63199 | -110.62297 | 25808 ft | 561 kts | 110° |
| 2026-05-04 21:40 | 32.62214 | -110.57804 | 25891 ft | 564 kts | 109° |
| 2026-05-04 21:40 | 32.61234 | -110.53306 | 25987 ft | 564 kts | 109° |
| 2026-05-04 21:41 | 32.60242 | -110.48794 | 26095 ft | 564 kts | 109° |
| 2026-05-04 21:41 | 32.59248 | -110.44294 | 26208 ft | 565 kts | 109° |
| 2026-05-04 21:41 | 32.58248 | -110.39791 | 26313 ft | 565 kts | 109° |
| 2026-05-04 21:41 | 32.57248 | -110.35295 | 26460 ft | 564 kts | 109° |
| 2026-05-04 21:42 | 32.56250 | -110.30815 | 26620 ft | 562 kts | 110° |
| 2026-05-04 21:42 | 32.55247 | -110.26328 | 26665 ft | 563 kts | 109° |
| 2026-05-04 21:42 | 32.54241 | -110.21837 | 26696 ft | 565 kts | 110° |
| 2026-05-04 21:42 | 32.53230 | -110.17329 | 26754 ft | 567 kts | 109° |
| 2026-05-04 21:43 | 32.52216 | -110.12816 | 26863 ft | 567 kts | 109° |
| 2026-05-04 21:43 | 32.51202 | -110.08303 | 26940 ft | 567 kts | 110° |
| 2026-05-04 21:43 | 32.50183 | -110.03778 | 27028 ft | 568 kts | 110° |
| 2026-05-04 21:43 | 32.49163 | -109.99259 | 27123 ft | 568 kts | 110° |
| 2026-05-04 21:44 | 32.48141 | -109.94738 | 27220 ft | 568 kts | 110° |
| 2026-05-04 21:44 | 32.47117 | -109.90216 | 27310 ft | 569 kts | 110° |
| 2026-05-04 21:44 | 32.46091 | -109.85693 | 27409 ft | 569 kts | 110° |
| 2026-05-04 21:44 | 32.45063 | -109.81171 | 27512 ft | 569 kts | 110° |
| 2026-05-04 21:45 | 32.44040 | -109.76644 | 27605 ft | 570 kts | 108° |
| 2026-05-04 21:45 | 32.43314 | -109.72010 | 27723 ft | 573 kts | 102° |
| 2026-05-04 21:45 | 32.42739 | -109.67373 | 28003 ft | 570 kts | 102° |
| 2026-05-04 21:45 | 32.42162 | -109.62740 | 28301 ft | 568 kts | 102° |
| 2026-05-04 21:46 | 32.41589 | -109.58189 | 28604 ft | 566 kts | 102° |
| 2026-05-04 21:46 | 32.41005 | -109.53584 | 28913 ft | 566 kts | 102° |
| 2026-05-04 21:46 | 32.40417 | -109.48975 | 29228 ft | 566 kts | 102° |
| 2026-05-04 21:46 | 32.39827 | -109.44367 | 29541 ft | 566 kts | 103° |
| 2026-05-04 21:47 | 32.39236 | -109.39758 | 29859 ft | 567 kts | 103° |
| 2026-05-04 21:47 | 32.38643 | -109.35149 | 30132 ft | 567 kts | 103° |
| 2026-05-04 21:47 | 32.38048 | -109.30536 | 30409 ft | 567 kts | 103° |
| 2026-05-04 21:47 | 32.37451 | -109.25917 | 30683 ft | 568 kts | 103° |
| 2026-05-04 21:48 | 32.36852 | -109.21304 | 30963 ft | 568 kts | 103° |
| 2026-05-04 21:48 | 32.36252 | -109.16688 | 31249 ft | 568 kts | 103° |
| 2026-05-04 21:48 | 32.35599 | -109.12094 | 31536 ft | 565 kts | 106° |
| 2026-05-04 21:48 | 32.34791 | -109.07551 | 31885 ft | 562 kts | 108° |
| 2026-05-04 21:49 | 32.33941 | -109.03045 | 32242 ft | 561 kts | 108° |
| 2026-05-04 21:49 | 32.33098 | -108.98544 | 32568 ft | 560 kts | 107° |
| 2026-05-04 21:49 | 32.32271 | -108.94044 | 32896 ft | 560 kts | 107° |
| 2026-05-04 21:49 | 32.31454 | -108.89543 | 33227 ft | 559 kts | 107° |
| 2026-05-04 21:50 | 32.30644 | -108.85051 | 33566 ft | 559 kts | 107° |
| 2026-05-04 21:50 | 32.29836 | -108.80562 | 33908 ft | 558 kts | 107° |
| 2026-05-04 21:50 | 32.29028 | -108.76081 | 34201 ft | 557 kts | 107° |
| 2026-05-04 21:50 | 32.28220 | -108.71609 | 34468 ft | 556 kts | 107° |
| 2026-05-04 21:51 | 32.27414 | -108.67158 | 34734 ft | 554 kts | 107° |
| 2026-05-04 21:51 | 32.26607 | -108.62714 | 35015 ft | 553 kts | 107° |
| 2026-05-04 21:51 | 32.25800 | -108.58276 | 35270 ft | 551 kts | 107° |
| 2026-05-04 21:51 | 32.24994 | -108.53857 | 35527 ft | 550 kts | 107° |
| 2026-05-04 21:52 | 32.24189 | -108.49454 | 35780 ft | 548 kts | 108° |
| 2026-05-04 21:52 | 32.23386 | -108.45066 | 36036 ft | 546 kts | 108° |
| 2026-05-04 21:52 | 32.22583 | -108.40692 | 36300 ft | 543 kts | 108° |
| 2026-05-04 21:52 | 32.21786 | -108.36353 | 36560 ft | 540 kts | 108° |
| 2026-05-04 21:53 | 32.20987 | -108.32021 | 36765 ft | 540 kts | 108° |
| 2026-05-04 21:53 | 32.19373 | -108.23313 | 36803 ft | 547 kts | 108° |
| 2026-05-04 21:54 | 32.17741 | -108.14537 | 36810 ft | 555 kts | 107° |
| 2026-05-04 21:54 | 32.16076 | -108.05598 | 36845 ft | 559 kts | 107° |
| 2026-05-04 21:55 | 32.14401 | -107.96638 | 36902 ft | 559 kts | 107° |
| 2026-05-04 21:55 | 32.12720 | -107.87684 | 36942 ft | 559 kts | 107° |
| 2026-05-04 21:56 | 32.11030 | -107.78732 | 36966 ft | 559 kts | 107° |
| 2026-05-04 21:56 | 32.09335 | -107.69782 | 36957 ft | 559 kts | 107° |
| 2026-05-04 21:57 | 32.07633 | -107.60835 | 36923 ft | 559 kts | 107° |
| 2026-05-04 21:57 | 32.05923 | -107.51888 | 36875 ft | 559 kts | 107° |
| 2026-05-04 21:58 | 32.04210 | -107.42953 | 36816 ft | 559 kts | 107° |
| 2026-05-04 21:58 | 32.02489 | -107.34018 | 36788 ft | 559 kts | 107° |
| 2026-05-04 21:59 | 32.00762 | -107.25081 | 36787 ft | 559 kts | 107° |
| 2026-05-04 21:59 | 31.99028 | -107.16147 | 36784 ft | 560 kts | 107° |
| 2026-05-04 22:00 | 31.97305 | -107.07309 | 36810 ft | 560 kts | 107° |
| 2026-05-04 22:00 | 31.95543 | -106.98302 | 36876 ft | 561 kts | 107° |
| 2026-05-04 22:01 | 31.93785 | -106.89348 | 36938 ft | 561 kts | 107° |
| 2026-05-04 22:01 | 31.92034 | -106.80465 | 37003 ft | 562 kts | 107° |
| 2026-05-04 22:02 | 31.90261 | -106.71508 | 37003 ft | 562 kts | 107° |
| 2026-05-04 22:02 | 31.88481 | -106.62550 | 36999 ft | 562 kts | 107° |
| 2026-05-04 22:03 | 31.86694 | -106.53594 | 36961 ft | 563 kts | 107° |
| 2026-05-04 22:03 | 31.84902 | -106.44645 | 36969 ft | 562 kts | 107° |
| 2026-05-04 22:04 | 31.83099 | -106.35680 | 36971 ft | 563 kts | 107° |
| 2026-05-04 22:04 | 31.81039 | -106.26833 | 36958 ft | 558 kts | 116° |
| 2026-05-04 22:05 | 31.77942 | -106.18521 | 36919 ft | 555 kts | 120° |
| 2026-05-04 22:05 | 31.74822 | -106.10225 | 36877 ft | 555 kts | 119° |
| 2026-05-04 22:06 | 31.71705 | -106.01932 | 36837 ft | 554 kts | 120° |
| 2026-05-04 22:06 | 31.68583 | -105.93657 | 36821 ft | 554 kts | 120° |
| 2026-05-04 22:07 | 31.65455 | -105.85397 | 36815 ft | 554 kts | 120° |
| 2026-05-04 22:07 | 31.62322 | -105.77146 | 36821 ft | 553 kts | 119° |
| 2026-05-04 22:08 | 31.59187 | -105.68912 | 36825 ft | 553 kts | 119° |
| 2026-05-04 22:08 | 31.56045 | -105.60675 | 36824 ft | 553 kts | 119° |
| 2026-05-04 22:09 | 31.52899 | -105.52449 | 36831 ft | 554 kts | 119° |
| 2026-05-04 22:09 | 31.49741 | -105.44210 | 36828 ft | 554 kts | 119° |
| 2026-05-04 22:10 | 31.46578 | -105.35979 | 36833 ft | 554 kts | 119° |
| 2026-05-04 22:10 | 31.43406 | -105.27743 | 36833 ft | 554 kts | 119° |
| 2026-05-04 22:11 | 31.40233 | -105.19521 | 36836 ft | 554 kts | 119° |
| 2026-05-04 22:11 | 31.37053 | -105.11304 | 36836 ft | 554 kts | 119° |
| 2026-05-04 22:12 | 31.33867 | -105.03088 | 36833 ft | 554 kts | 119° |
| 2026-05-04 22:12 | 31.30697 | -104.94934 | 36838 ft | 555 kts | 119° |
| 2026-05-04 22:13 | 31.27500 | -104.86728 | 36835 ft | 554 kts | 119° |
| 2026-05-04 22:13 | 31.24299 | -104.78530 | 36834 ft | 555 kts | 119° |
| 2026-05-04 22:14 | 31.21091 | -104.70336 | 36828 ft | 555 kts | 119° |
| 2026-05-04 22:14 | 31.18394 | -104.63459 | 36828 ft | 555 kts | 119° |
| 2026-05-04 22:15 | 31.15173 | -104.55262 | 36836 ft | 556 kts | 119° |
| 2026-05-04 22:15 | 31.11944 | -104.47067 | 36833 ft | 555 kts | 119° |
| 2026-05-04 22:16 | 31.08733 | -104.38936 | 36830 ft | 556 kts | 119° |
| 2026-05-04 22:16 | 31.05494 | -104.30751 | 36837 ft | 556 kts | 119° |
| 2026-05-04 22:17 | 31.02248 | -104.22569 | 36841 ft | 556 kts | 119° |
| 2026-05-04 22:17 | 30.98997 | -104.14391 | 36846 ft | 556 kts | 119° |
| 2026-05-04 22:18 | 30.95738 | -104.06213 | 36844 ft | 558 kts | 119° |
| 2026-05-04 22:18 | 30.92466 | -103.98018 | 36837 ft | 556 kts | 119° |
| 2026-05-04 22:19 | 30.89197 | -103.89852 | 36842 ft | 557 kts | 119° |
| 2026-05-04 22:19 | 30.85921 | -103.81685 | 36827 ft | 557 kts | 119° |
| 2026-05-04 22:20 | 30.82650 | -103.73550 | 36829 ft | 557 kts | 119° |
| 2026-05-04 22:20 | 30.79362 | -103.65389 | 36824 ft | 557 kts | 119° |
| 2026-05-04 22:21 | 30.76071 | -103.57242 | 36816 ft | 557 kts | 119° |
| 2026-05-04 22:21 | 30.72774 | -103.49096 | 36805 ft | 557 kts | 119° |
| 2026-05-04 22:22 | 30.69471 | -103.40955 | 36811 ft | 557 kts | 119° |
| 2026-05-04 22:22 | 30.66186 | -103.32876 | 36805 ft | 557 kts | 119° |
| 2026-05-04 22:23 | 30.62876 | -103.24752 | 36814 ft | 556 kts | 119° |
| 2026-05-04 22:23 | 30.59567 | -103.16650 | 36813 ft | 556 kts | 119° |
| 2026-05-04 22:24 | 30.56253 | -103.08551 | 36815 ft | 555 kts | 119° |
| 2026-05-04 22:24 | 30.52937 | -103.00468 | 36804 ft | 555 kts | 118° |
| 2026-05-04 22:25 | 30.49618 | -102.92395 | 36820 ft | 554 kts | 118° |
| 2026-05-04 22:25 | 30.46294 | -102.84326 | 36816 ft | 555 kts | 118° |
| 2026-05-04 22:26 | 30.42965 | -102.76263 | 36816 ft | 554 kts | 118° |
| 2026-05-04 22:26 | 30.39632 | -102.68206 | 36814 ft | 554 kts | 118° |
| 2026-05-04 22:27 | 30.36294 | -102.60158 | 36814 ft | 554 kts | 118° |
| 2026-05-04 22:27 | 30.32952 | -102.52114 | 36812 ft | 554 kts | 118° |
| 2026-05-04 22:28 | 30.29606 | -102.44078 | 36827 ft | 554 kts | 118° |
| 2026-05-04 22:28 | 30.26255 | -102.36048 | 36822 ft | 554 kts | 118° |
| 2026-05-04 22:29 | 30.22898 | -102.28024 | 36827 ft | 554 kts | 118° |
| 2026-05-04 22:29 | 30.19562 | -102.20064 | 36832 ft | 554 kts | 118° |
| 2026-05-04 22:30 | 30.16194 | -102.12046 | 36834 ft | 555 kts | 118° |
| 2026-05-04 22:30 | 30.12820 | -102.04031 | 36836 ft | 555 kts | 118° |
| 2026-05-04 22:31 | 30.09439 | -101.96015 | 36837 ft | 555 kts | 118° |
| 2026-05-04 22:31 | 30.06051 | -101.88000 | 36834 ft | 555 kts | 118° |
| 2026-05-04 22:32 | 30.02658 | -101.79989 | 36838 ft | 556 kts | 118° |
| 2026-05-04 22:32 | 29.99256 | -101.71976 | 36842 ft | 556 kts | 118° |
| 2026-05-04 22:33 | 29.95848 | -101.63965 | 36843 ft | 556 kts | 118° |
| 2026-05-04 22:33 | 29.92437 | -101.55955 | 36844 ft | 557 kts | 118° |
| 2026-05-04 22:34 | 29.89022 | -101.47950 | 36844 ft | 557 kts | 118° |
| 2026-05-04 22:34 | 29.85307 | -101.40156 | 36844 ft | 554 kts | 124° |
| 2026-05-04 22:35 | 29.81337 | -101.32532 | 36853 ft | 555 kts | 124° |
| 2026-05-04 22:35 | 29.77377 | -101.24897 | 36843 ft | 555 kts | 123° |
| 2026-05-04 22:36 | 29.73403 | -101.17279 | 36843 ft | 555 kts | 123° |
| 2026-05-04 22:36 | 29.69440 | -101.09706 | 36847 ft | 555 kts | 123° |
| 2026-05-04 22:37 | 29.65455 | -101.02109 | 36852 ft | 555 kts | 123° |
| 2026-05-04 22:37 | 29.61473 | -100.94533 | 36850 ft | 555 kts | 123° |
| 2026-05-04 22:38 | 29.57485 | -100.86957 | 36847 ft | 556 kts | 123° |
| 2026-05-04 22:38 | 29.53496 | -100.79395 | 36837 ft | 555 kts | 123° |
| 2026-05-04 22:39 | 29.49492 | -100.71817 | 36829 ft | 555 kts | 123° |
| 2026-05-04 22:39 | 29.45481 | -100.64241 | 36827 ft | 555 kts | 123° |
| 2026-05-04 22:40 | 29.41471 | -100.56680 | 36824 ft | 555 kts | 123° |
| 2026-05-04 22:40 | 29.37498 | -100.49203 | 36829 ft | 555 kts | 123° |
| 2026-05-04 22:41 | 29.33484 | -100.41663 | 36852 ft | 554 kts | 123° |
| 2026-05-04 22:41 | 29.29463 | -100.34124 | 36855 ft | 554 kts | 123° |
| 2026-05-04 22:42 | 29.25438 | -100.26592 | 36857 ft | 554 kts | 123° |
| 2026-05-04 22:42 | 29.21413 | -100.19072 | 36850 ft | 554 kts | 123° |
| 2026-05-04 22:43 | 29.17386 | -100.11562 | 36873 ft | 554 kts | 123° |
| 2026-05-04 22:43 | 29.13351 | -100.04053 | 36880 ft | 554 kts | 123° |
| 2026-05-04 22:44 | 29.09318 | -99.96560 | 36891 ft | 554 kts | 123° |
| 2026-05-04 22:44 | 29.05324 | -99.89151 | 36889 ft | 553 kts | 123° |
| 2026-05-04 22:45 | 29.01261 | -99.81631 | 36882 ft | 554 kts | 123° |
| 2026-05-04 22:45 | 28.95189 | -99.70416 | 36894 ft | 553 kts | 123° |
| 2026-05-04 22:46 | 28.91166 | -99.63001 | 36886 ft | 553 kts | 123° |
| 2026-05-04 22:46 | 28.87112 | -99.55543 | 36886 ft | 553 kts | 124° |
| 2026-05-04 22:47 | 28.83058 | -99.48099 | 36878 ft | 553 kts | 124° |
| 2026-05-04 22:47 | 28.78998 | -99.40657 | 36886 ft | 552 kts | 124° |
| 2026-05-04 22:48 | 28.74874 | -99.33288 | 36894 ft | 550 kts | 130° |
| 2026-05-04 22:48 | 28.72335 | -99.30061 | 36893 ft | 544 kts | 142° |
| 2026-05-04 22:48 | 28.69376 | -99.27436 | 36895 ft | 535 kts | 154° |
| 2026-05-04 22:49 | 28.62893 | -99.23419 | 36881 ft | 530 kts | 159° |
| 2026-05-04 22:49 | 28.56388 | -99.19538 | 36895 ft | 530 kts | 159° |
| 2026-05-04 22:50 | 28.49895 | -99.15573 | 36896 ft | 530 kts | 158° |
| 2026-05-04 22:50 | 28.43420 | -99.11592 | 36894 ft | 530 kts | 158° |
| 2026-05-04 22:51 | 28.36923 | -99.07601 | 36896 ft | 530 kts | 158° |
| 2026-05-04 22:51 | 28.30434 | -99.03622 | 36894 ft | 530 kts | 158° |
| 2026-05-04 22:52 | 28.23936 | -98.99643 | 36897 ft | 531 kts | 158° |
| 2026-05-04 22:52 | 28.17461 | -98.95684 | 36895 ft | 530 kts | 158° |
| 2026-05-04 22:53 | 28.10961 | -98.91715 | 36892 ft | 531 kts | 158° |
| 2026-05-04 22:53 | 28.04461 | -98.87752 | 36893 ft | 531 kts | 158° |
| 2026-05-04 22:54 | 27.97954 | -98.83790 | 36897 ft | 531 kts | 158° |
| 2026-05-04 22:54 | 27.91513 | -98.79873 | 36896 ft | 531 kts | 158° |
| 2026-05-04 22:55 | 27.85006 | -98.75922 | 36896 ft | 531 kts | 158° |
| 2026-05-04 22:55 | 27.78499 | -98.71976 | 36701 ft | 526 kts | 158° |
| 2026-05-04 22:56 | 27.75287 | -98.70023 | 36895 ft | 511 kts | 158° |
| 2026-05-04 22:56 | 27.72205 | -98.68156 | 36894 ft | 510 kts | 158° |
| 2026-05-04 22:56 | 27.65928 | -98.64368 | 36900 ft | 512 kts | 158° |
| 2026-05-04 22:57 | 27.59676 | -98.60595 | 36900 ft | 511 kts | 158° |
| 2026-05-04 22:57 | 27.53391 | -98.56804 | 36901 ft | 511 kts | 157° |
| 2026-05-04 22:58 | 27.47120 | -98.53027 | 36900 ft | 511 kts | 157° |
| 2026-05-04 22:58 | 27.40853 | -98.49256 | 36904 ft | 510 kts | 157° |
| 2026-05-04 22:59 | 27.34596 | -98.45497 | 36904 ft | 509 kts | 157° |
| 2026-05-04 22:59 | 27.28344 | -98.41745 | 36898 ft | 509 kts | 157° |
| 2026-05-04 23:00 | 27.22106 | -98.38007 | 36898 ft | 509 kts | 157° |
| 2026-05-04 23:00 | 27.15860 | -98.34268 | 36892 ft | 508 kts | 157° |
| 2026-05-04 23:01 | 27.10673 | -98.31168 | 36899 ft | 509 kts | 157° |
| 2026-05-04 23:01 | 27.04425 | -98.27437 | 36902 ft | 509 kts | 157° |
| 2026-05-04 23:02 | 26.98140 | -98.23688 | 36896 ft | 508 kts | 157° |
| 2026-05-04 23:02 | 26.91899 | -98.19971 | 36903 ft | 508 kts | 157° |
| 2026-05-04 23:03 | 26.85703 | -98.16285 | 36903 ft | 508 kts | 157° |
| 2026-05-04 23:03 | 26.79460 | -98.12576 | 36910 ft | 508 kts | 157° |
| 2026-05-04 23:04 | 26.73216 | -98.08871 | 36903 ft | 508 kts | 157° |
| 2026-05-04 23:04 | 26.66974 | -98.05171 | 36906 ft | 508 kts | 157° |
| 2026-05-04 23:05 | 26.60728 | -98.01474 | 36905 ft | 508 kts | 157° |
| 2026-05-04 23:05 | 26.54476 | -97.97778 | 36905 ft | 508 kts | 157° |
| 2026-05-04 23:06 | 26.48233 | -97.94092 | 36904 ft | 508 kts | 157° |
| 2026-05-04 23:06 | 26.41981 | -97.90406 | 36903 ft | 508 kts | 157° |
| 2026-05-04 23:07 | 26.35733 | -97.86725 | 36910 ft | 508 kts | 157° |
| 2026-05-04 23:07 | 26.29474 | -97.83043 | 36914 ft | 508 kts | 157° |
| 2026-05-04 23:08 | 26.23229 | -97.79373 | 36923 ft | 508 kts | 157° |
| 2026-05-04 23:08 | 26.16972 | -97.75701 | 36924 ft | 509 kts | 157° |
| 2026-05-04 23:09 | 26.10710 | -97.72031 | 36923 ft | 508 kts | 157° |
| 2026-05-04 23:09 | 26.04447 | -97.68365 | 36920 ft | 508 kts | 157° |
| 2026-05-04 23:10 | 25.98188 | -97.64706 | 36919 ft | 508 kts | 156° |
| 2026-05-04 23:10 | 25.91931 | -97.61051 | 36922 ft | 508 kts | 156° |
| 2026-05-04 23:11 | 25.88802 | -97.59226 | 37096 ft | 509 kts | 158° |
| 2026-05-04 23:11 | 25.85635 | -97.57376 | 36925 ft | 518 kts | 158° |
| 2026-05-04 23:11 | 25.79277 | -97.53433 | 36923 ft | 533 kts | 148° |
| 2026-05-04 23:12 | 25.76444 | -97.50734 | 36922 ft | 542 kts | 136° |
| 2026-05-04 23:12 | 25.74061 | -97.47477 | 36925 ft | 545 kts | 124° |
| 2026-05-04 23:12 | 25.70305 | -97.40171 | 36926 ft | 545 kts | 118° |
| 2026-05-04 23:13 | 25.66628 | -97.32826 | 36922 ft | 544 kts | 120° |
| 2026-05-04 23:13 | 25.62843 | -97.25633 | 36920 ft | 544 kts | 121° |
| 2026-05-04 23:14 | 25.58988 | -97.18420 | 36918 ft | 543 kts | 121° |
| 2026-05-04 23:14 | 25.55131 | -97.11222 | 36919 ft | 543 kts | 121° |
| 2026-05-04 23:15 | 25.51275 | -97.04030 | 36916 ft | 542 kts | 121° |
| 2026-05-04 23:15 | 25.47422 | -96.96854 | 36915 ft | 542 kts | 121° |
| 2026-05-04 23:16 | 25.43567 | -96.89686 | 36907 ft | 542 kts | 121° |
| 2026-05-04 23:16 | 25.39712 | -96.82528 | 36920 ft | 542 kts | 121° |
| 2026-05-04 23:17 | 25.35856 | -96.75379 | 36914 ft | 541 kts | 121° |
| 2026-05-04 23:17 | 25.31997 | -96.68237 | 36918 ft | 541 kts | 121° |
| 2026-05-04 23:18 | 25.28138 | -96.61107 | 36921 ft | 540 kts | 121° |
| 2026-05-04 23:18 | 25.24277 | -96.53982 | 36926 ft | 540 kts | 121° |
| 2026-05-04 23:19 | 25.20416 | -96.46869 | 36927 ft | 540 kts | 121° |
| 2026-05-04 23:19 | 25.16556 | -96.39768 | 36919 ft | 539 kts | 121° |
| 2026-05-04 23:20 | 25.12694 | -96.32674 | 36920 ft | 539 kts | 121° |
| 2026-05-04 23:20 | 25.08833 | -96.25593 | 36924 ft | 538 kts | 122° |
| 2026-05-04 23:21 | 25.04975 | -96.18527 | 36928 ft | 537 kts | 122° |
| 2026-05-04 23:21 | 25.01129 | -96.11493 | 36928 ft | 537 kts | 122° |
| 2026-05-04 23:22 | 24.97272 | -96.04450 | 36929 ft | 536 kts | 122° |
| 2026-05-04 23:22 | 24.93417 | -95.97420 | 36930 ft | 536 kts | 122° |
| 2026-05-04 23:23 | 24.89566 | -95.90402 | 36838 ft | 534 kts | 121° |
| 2026-05-04 23:23 | 24.85801 | -95.83559 | 36936 ft | 522 kts | 121° |
| 2026-05-04 23:24 | 24.82026 | -95.76700 | 36932 ft | 524 kts | 121° |
| 2026-05-04 23:24 | 24.78250 | -95.69849 | 36936 ft | 524 kts | 121° |
| 2026-05-04 23:25 | 24.74434 | -95.62939 | 36933 ft | 524 kts | 121° |
| 2026-05-04 23:25 | 24.70678 | -95.56150 | 36932 ft | 524 kts | 121° |
| 2026-05-04 23:26 | 24.66882 | -95.49299 | 36933 ft | 524 kts | 121° |
| 2026-05-04 23:26 | 24.64990 | -95.45886 | 37151 ft | 520 kts | 121° |
| 2026-05-04 23:26 | 24.63117 | -95.42511 | 37486 ft | 517 kts | 121° |
| 2026-05-04 23:27 | 24.59334 | -95.35704 | 37159 ft | 524 kts | 121° |
| 2026-05-04 23:27 | 24.57436 | -95.32289 | 36960 ft | 523 kts | 121° |
| 2026-05-04 23:27 | 24.55540 | -95.28883 | 36938 ft | 523 kts | 121° |
| 2026-05-04 23:28 | 24.51736 | -95.22058 | 36935 ft | 524 kts | 121° |
| 2026-05-04 23:28 | 24.47931 | -95.15237 | 36937 ft | 524 kts | 121° |
| 2026-05-04 23:29 | 24.44120 | -95.08419 | 36938 ft | 524 kts | 121° |
| 2026-05-04 23:29 | 24.40304 | -95.01606 | 36940 ft | 524 kts | 121° |
| 2026-05-04 23:30 | 24.36485 | -94.94797 | 36939 ft | 524 kts | 121° |
| 2026-05-04 23:30 | 24.32661 | -94.87989 | 36941 ft | 524 kts | 121° |
| 2026-05-04 23:31 | 24.28846 | -94.81204 | 36939 ft | 524 kts | 121° |
| 2026-05-04 23:31 | 24.25014 | -94.74399 | 36938 ft | 524 kts | 121° |
| 2026-05-04 23:32 | 24.21180 | -94.67601 | 36942 ft | 524 kts | 121° |
| 2026-05-04 23:32 | 24.17346 | -94.60811 | 36944 ft | 524 kts | 121° |
| 2026-05-04 23:33 | 24.13964 | -94.53783 | 36946 ft | 523 kts | 110° |
| 2026-05-04 23:33 | 24.11233 | -94.46403 | 36943 ft | 523 kts | 110° |
| 2026-05-04 23:34 | 24.08486 | -94.39039 | 36945 ft | 523 kts | 110° |
| 2026-05-04 23:34 | 24.05735 | -94.31683 | 36944 ft | 523 kts | 111° |
| 2026-05-04 23:35 | 24.02979 | -94.24327 | 36943 ft | 522 kts | 111° |
| 2026-05-04 23:35 | 24.00219 | -94.16972 | 36948 ft | 522 kts | 111° |
| 2026-05-04 23:36 | 23.97457 | -94.09624 | 36947 ft | 522 kts | 110° |
| 2026-05-04 23:36 | 23.94694 | -94.02287 | 36950 ft | 522 kts | 110° |
| 2026-05-04 23:37 | 23.91924 | -93.94943 | 36953 ft | 522 kts | 110° |
| 2026-05-04 23:37 | 23.89154 | -93.87609 | 36947 ft | 522 kts | 110° |
| 2026-05-04 23:38 | 23.86378 | -93.80275 | 36950 ft | 522 kts | 110° |
| 2026-05-04 23:38 | 23.83618 | -93.72997 | 36948 ft | 522 kts | 110° |
| 2026-05-04 23:39 | 23.80838 | -93.65673 | 36949 ft | 522 kts | 110° |
| 2026-05-04 23:39 | 23.78056 | -93.58358 | 36950 ft | 522 kts | 110° |
| 2026-05-04 23:40 | 23.75270 | -93.51044 | 36953 ft | 522 kts | 110° |
| 2026-05-04 23:40 | 23.72481 | -93.43734 | 36953 ft | 522 kts | 110° |
| 2026-05-04 23:41 | 23.69689 | -93.36431 | 36952 ft | 521 kts | 110° |
| 2026-05-04 23:41 | 23.66893 | -93.29128 | 36952 ft | 522 kts | 110° |
| 2026-05-04 23:42 | 23.64093 | -93.21828 | 36953 ft | 522 kts | 110° |
| 2026-05-04 23:42 | 23.61292 | -93.14536 | 36952 ft | 522 kts | 110° |
| 2026-05-04 23:43 | 23.58483 | -93.07236 | 36951 ft | 522 kts | 110° |
| 2026-05-04 23:43 | 23.55671 | -92.99940 | 36951 ft | 522 kts | 110° |
| 2026-05-04 23:44 | 23.52854 | -92.92642 | 36951 ft | 522 kts | 110° |
| 2026-05-04 23:44 | 23.50034 | -92.85351 | 36952 ft | 522 kts | 110° |
| 2026-05-04 23:45 | 23.47210 | -92.78059 | 36952 ft | 522 kts | 110° |
| 2026-05-04 23:45 | 23.44382 | -92.70769 | 36952 ft | 523 kts | 110° |
| 2026-05-04 23:46 | 23.41548 | -92.63476 | 36956 ft | 523 kts | 110° |
| 2026-05-04 23:46 | 23.39191 | -92.57420 | 36955 ft | 523 kts | 110° |
| 2026-05-04 23:47 | 23.35868 | -92.48894 | 36952 ft | 523 kts | 110° |
| 2026-05-04 23:47 | 23.33504 | -92.42839 | 36954 ft | 523 kts | 110° |
| 2026-05-04 23:48 | 23.30655 | -92.35553 | 36954 ft | 523 kts | 110° |
| 2026-05-04 23:48 | 23.27801 | -92.28265 | 36957 ft | 524 kts | 110° |
| 2026-05-04 23:49 | 23.24945 | -92.20984 | 36957 ft | 524 kts | 110° |
| 2026-05-04 23:49 | 23.22083 | -92.13698 | 36958 ft | 524 kts | 110° |
| 2026-05-04 23:50 | 23.19219 | -92.06421 | 36957 ft | 524 kts | 110° |
| 2026-05-04 23:50 | 23.16355 | -91.99153 | 36959 ft | 524 kts | 110° |
| 2026-05-04 23:51 | 23.13482 | -91.91872 | 36960 ft | 524 kts | 110° |
| 2026-05-04 23:51 | 23.10622 | -91.84635 | 36963 ft | 524 kts | 110° |
| 2026-05-04 23:52 | 23.07735 | -91.77342 | 36961 ft | 524 kts | 110° |
| 2026-05-04 23:52 | 23.04854 | -91.70075 | 36960 ft | 524 kts | 110° |
| 2026-05-04 23:53 | 23.01970 | -91.62808 | 36964 ft | 524 kts | 110° |
| 2026-05-04 23:53 | 22.99080 | -91.55541 | 36962 ft | 525 kts | 110° |
| 2026-05-04 23:54 | 22.96202 | -91.48316 | 36962 ft | 525 kts | 110° |
| 2026-05-04 23:54 | 22.93281 | -91.40997 | 36961 ft | 525 kts | 110° |
| 2026-05-04 23:55 | 22.90391 | -91.33774 | 36960 ft | 526 kts | 110° |
| 2026-05-04 23:56 | 22.86024 | -91.22876 | 36959 ft | 526 kts | 110° |
| 2026-05-04 23:56 | 22.83103 | -91.15602 | 36962 ft | 526 kts | 110° |
| 2026-05-04 23:57 | 22.80181 | -91.08338 | 36959 ft | 526 kts | 110° |
| 2026-05-04 23:57 | 22.77257 | -91.01078 | 36957 ft | 526 kts | 110° |
| 2026-05-04 23:58 | 22.74340 | -90.93847 | 36958 ft | 526 kts | 110° |
| 2026-05-04 23:58 | 22.71406 | -90.86587 | 36956 ft | 526 kts | 110° |
| 2026-05-04 23:59 | 22.68471 | -90.79332 | 36957 ft | 526 kts | 110° |
| 2026-05-04 23:59 | 22.65531 | -90.72080 | 36956 ft | 526 kts | 110° |
| 2026-05-05 00:00 | 22.62590 | -90.64835 | 36950 ft | 526 kts | 110° |
| 2026-05-05 00:00 | 22.59646 | -90.57593 | 36951 ft | 526 kts | 110° |
| 2026-05-05 00:01 | 22.56699 | -90.50356 | 36957 ft | 526 kts | 110° |
| 2026-05-05 00:01 | 22.53747 | -90.43117 | 36951 ft | 526 kts | 110° |
| 2026-05-05 00:02 | 22.50405 | -90.36074 | 36955 ft | 529 kts | 120° |
| 2026-05-05 00:02 | 22.46538 | -90.29326 | 36949 ft | 528 kts | 119° |
| 2026-05-05 00:03 | 22.42686 | -90.22577 | 36955 ft | 527 kts | 119° |
| 2026-05-05 00:03 | 22.38834 | -90.15839 | 36963 ft | 527 kts | 119° |
| 2026-05-05 00:04 | 22.34991 | -90.09128 | 36961 ft | 526 kts | 119° |
| 2026-05-05 00:04 | 22.31136 | -90.02405 | 36696 ft | 523 kts | 119° |
| 2026-05-05 00:04 | 22.29248 | -89.99116 | 36126 ft | 522 kts | 120° |
| 2026-05-05 00:05 | 22.27336 | -89.95785 | 35405 ft | 523 kts | 120° |
| 2026-05-05 00:05 | 22.25418 | -89.92447 | 34618 ft | 524 kts | 120° |
| 2026-05-05 00:05 | 22.23493 | -89.89097 | 33799 ft | 526 kts | 120° |
| 2026-05-05 00:05 | 22.21563 | -89.85742 | 32919 ft | 527 kts | 120° |
| 2026-05-05 00:06 | 22.19628 | -89.82381 | 32036 ft | 528 kts | 120° |
| 2026-05-05 00:06 | 22.17686 | -89.79010 | 31157 ft | 529 kts | 120° |
| 2026-05-05 00:06 | 22.15742 | -89.75638 | 30389 ft | 528 kts | 120° |
| 2026-05-05 00:06 | 22.13814 | -89.72296 | 29828 ft | 522 kts | 120° |
| 2026-05-05 00:07 | 22.11908 | -89.68994 | 29212 ft | 515 kts | 120° |
| 2026-05-05 00:07 | 22.10026 | -89.65734 | 28592 ft | 509 kts | 120° |
| 2026-05-05 00:07 | 22.08165 | -89.62512 | 27984 ft | 503 kts | 120° |
| 2026-05-05 00:07 | 22.06324 | -89.59327 | 27390 ft | 498 kts | 121° |
| 2026-05-05 00:08 | 22.04504 | -89.56180 | 26803 ft | 492 kts | 121° |
| 2026-05-05 00:08 | 22.02702 | -89.53065 | 26241 ft | 487 kts | 121° |
| 2026-05-05 00:08 | 22.00920 | -89.49988 | 25680 ft | 482 kts | 121° |
| 2026-05-05 00:08 | 21.99156 | -89.46942 | 25124 ft | 477 kts | 121° |
| 2026-05-05 00:09 | 21.97409 | -89.43926 | 24581 ft | 472 kts | 121° |
| 2026-05-05 00:09 | 21.95692 | -89.40968 | 24056 ft | 467 kts | 121° |
| 2026-05-05 00:09 | 21.93979 | -89.38016 | 23523 ft | 462 kts | 122° |
| 2026-05-05 00:09 | 21.92287 | -89.35104 | 23084 ft | 454 kts | 122° |
| 2026-05-05 00:10 | 21.90617 | -89.32230 | 22960 ft | 455 kts | 122° |
| 2026-05-05 00:10 | 21.88925 | -89.29322 | 22948 ft | 459 kts | 122° |
| 2026-05-05 00:10 | 21.87206 | -89.26367 | 22946 ft | 472 kts | 122° |
| 2026-05-05 00:10 | 21.85440 | -89.23334 | 22948 ft | 484 kts | 122° |
| 2026-05-05 00:11 | 21.83640 | -89.20257 | 22947 ft | 489 kts | 122° |
| 2026-05-05 00:11 | 21.81794 | -89.17140 | 22949 ft | 500 kts | 122° |
| 2026-05-05 00:11 | 21.79898 | -89.13952 | 22945 ft | 511 kts | 122° |
| 2026-05-05 00:11 | 21.77966 | -89.10703 | 22949 ft | 520 kts | 122° |
| 2026-05-05 00:12 | 21.76002 | -89.07403 | 22945 ft | 528 kts | 122° |
| 2026-05-05 00:12 | 21.74021 | -89.04072 | 22948 ft | 528 kts | 122° |
| 2026-05-05 00:12 | 21.72042 | -89.00746 | 22946 ft | 528 kts | 122° |
| 2026-05-05 00:12 | 21.70060 | -88.97416 | 22948 ft | 528 kts | 122° |
| 2026-05-05 00:13 | 21.68079 | -88.94089 | 22947 ft | 528 kts | 122° |
| 2026-05-05 00:13 | 21.66131 | -88.90822 | 22947 ft | 528 kts | 122° |
| 2026-05-05 00:13 | 21.64118 | -88.87447 | 22946 ft | 528 kts | 122° |
| 2026-05-05 00:13 | 21.62132 | -88.84119 | 22943 ft | 528 kts | 122° |
| 2026-05-05 00:14 | 21.60155 | -88.80809 | 22944 ft | 528 kts | 122° |
| 2026-05-05 00:14 | 21.58169 | -88.77485 | 22942 ft | 528 kts | 122° |
| 2026-05-05 00:14 | 21.56204 | -88.74198 | 22941 ft | 528 kts | 122° |
| 2026-05-05 00:14 | 21.54234 | -88.70905 | 22941 ft | 529 kts | 122° |
| 2026-05-05 00:15 | 21.52247 | -88.67585 | 22943 ft | 528 kts | 122° |
| 2026-05-05 00:15 | 21.50260 | -88.64268 | 22944 ft | 528 kts | 122° |
| 2026-05-05 00:15 | 21.48270 | -88.60948 | 22944 ft | 529 kts | 122° |
| 2026-05-05 00:15 | 21.46282 | -88.57632 | 22944 ft | 528 kts | 122° |
| 2026-05-05 00:16 | 21.44290 | -88.54311 | 22940 ft | 528 kts | 122° |
| 2026-05-05 00:16 | 21.42313 | -88.51019 | 22940 ft | 514 kts | 122° |
| 2026-05-05 00:16 | 21.40451 | -88.47920 | 22944 ft | 482 kts | 122° |
| 2026-05-05 00:16 | 21.38739 | -88.45002 | 22941 ft | 451 kts | 119° |
| 2026-05-05 00:17 | 21.37385 | -88.42086 | 22943 ft | 423 kts | 111° |
| 2026-05-05 00:17 | 21.36414 | -88.39212 | 22882 ft | 398 kts | 105° |
| 2026-05-05 00:17 | 21.35760 | -88.36426 | 22472 ft | 386 kts | 101° |
| 2026-05-05 00:17 | 21.35182 | -88.33630 | 21817 ft | 382 kts | 101° |
| 2026-05-05 00:18 | 21.34604 | -88.30862 | 21191 ft | 378 kts | 101° |
| 2026-05-05 00:18 | 21.34028 | -88.28121 | 20584 ft | 375 kts | 102° |
| 2026-05-05 00:18 | 21.33458 | -88.25415 | 20008 ft | 371 kts | 102° |
| 2026-05-05 00:18 | 21.32893 | -88.22736 | 19429 ft | 368 kts | 102° |
| 2026-05-05 00:19 | 21.32328 | -88.20064 | 19022 ft | 366 kts | 102° |
| 2026-05-05 00:19 | 21.31769 | -88.17417 | 18659 ft | 363 kts | 102° |
| 2026-05-05 00:19 | 21.31213 | -88.14791 | 18296 ft | 360 kts | 103° |
| 2026-05-05 00:19 | 21.30659 | -88.12178 | 17867 ft | 358 kts | 103° |
| 2026-05-05 00:20 | 21.30112 | -88.09597 | 17441 ft | 356 kts | 103° |
| 2026-05-05 00:20 | 21.29562 | -88.07009 | 16916 ft | 357 kts | 103° |
| 2026-05-05 00:20 | 21.29020 | -88.04504 | 16422 ft | 358 kts | 103° |
| 2026-05-05 00:20 | 21.28429 | -88.01823 | 15898 ft | 358 kts | 103° |
| 2026-05-05 00:21 | 21.27859 | -87.99247 | 15398 ft | 352 kts | 103° |
| 2026-05-05 00:21 | 21.27301 | -87.96720 | 14909 ft | 345 kts | 103° |
| 2026-05-05 00:21 | 21.26718 | -87.94253 | 14424 ft | 338 kts | 111° |
| 2026-05-05 00:21 | 21.25567 | -87.92126 | 13949 ft | 327 kts | 134° |
| 2026-05-05 00:22 | 21.23832 | -87.90590 | 13451 ft | 324 kts | 147° |
| 2026-05-05 00:22 | 21.21877 | -87.89496 | 12917 ft | 316 kts | 167° |
| 2026-05-05 00:22 | 21.19733 | -87.89311 | 12404 ft | 307 kts | 191° |
| 2026-05-05 00:22 | 21.17744 | -87.90076 | 11899 ft | 306 kts | 215° |
| 2026-05-05 00:23 | 21.16239 | -87.91650 | 11398 ft | 303 kts | 239° |
| 2026-05-05 00:23 | 21.15497 | -87.93733 | 10900 ft | 301 kts | 264° |
| 2026-05-05 00:23 | 21.15640 | -87.95945 | 10421 ft | 300 kts | 287° |
| 2026-05-05 00:23 | 21.16623 | -87.97903 | 9940 ft | 301 kts | 311° |
| 2026-05-05 00:24 | 21.18295 | -87.99237 | 9419 ft | 303 kts | 336° |
| 2026-05-05 00:24 | 21.20352 | -87.99699 | 8893 ft | 306 kts | 0° |
| 2026-05-05 00:24 | 21.22401 | -87.99197 | 8379 ft | 302 kts | 25° |
| 2026-05-05 00:24 | 21.24002 | -87.97822 | 8084 ft | 291 kts | 52° |
| 2026-05-05 00:25 | 21.24831 | -87.95885 | 8006 ft | 294 kts | 78° |
| 2026-05-05 00:25 | 21.24847 | -87.93685 | 7984 ft | 298 kts | 99° |
| 2026-05-05 00:25 | 21.24500 | -87.91493 | 7980 ft | 297 kts | 99° |
| 2026-05-05 00:25 | 21.24177 | -87.89303 | 7985 ft | 299 kts | 98° |
| 2026-05-05 00:26 | 21.23872 | -87.87109 | 7986 ft | 299 kts | 97° |
| 2026-05-05 00:26 | 21.23583 | -87.84946 | 7985 ft | 295 kts | 97° |
| 2026-05-05 00:26 | 21.23298 | -87.82776 | 7983 ft | 294 kts | 97° |
| 2026-05-05 00:26 | 21.23011 | -87.80596 | 7982 ft | 296 kts | 97° |
| 2026-05-05 00:27 | 21.22724 | -87.78409 | 7986 ft | 296 kts | 97° |
| 2026-05-05 00:27 | 21.22436 | -87.76232 | 7983 ft | 295 kts | 97° |
| 2026-05-05 00:27 | 21.22149 | -87.74059 | 7880 ft | 294 kts | 97° |
| 2026-05-05 00:27 | 21.21945 | -87.71897 | 7595 ft | 292 kts | 89° |
| 2026-05-05 00:28 | 21.21980 | -87.69730 | 7259 ft | 290 kts | 88° |
| 2026-05-05 00:28 | 21.22016 | -87.67582 | 6931 ft | 287 kts | 88° |
| 2026-05-05 00:28 | 21.22045 | -87.65456 | 6607 ft | 284 kts | 88° |
| 2026-05-05 00:28 | 21.22072 | -87.63351 | 6265 ft | 281 kts | 88° |
| 2026-05-05 00:29 | 21.22098 | -87.61262 | 5899 ft | 280 kts | 88° |
| 2026-05-05 00:29 | 21.22125 | -87.59185 | 5543 ft | 278 kts | 89° |
| 2026-05-05 00:29 | 21.22152 | -87.57119 | 5161 ft | 276 kts | 89° |
| 2026-05-05 00:29 | 21.22178 | -87.55072 | 4632 ft | 274 kts | 89° |
| 2026-05-05 00:30 | 21.22204 | -87.53042 | 4095 ft | 271 kts | 89° |
| 2026-05-05 00:30 | 21.22228 | -87.51040 | 3569 ft | 269 kts | 90° |
| 2026-05-05 00:30 | 21.22252 | -87.49053 | 3161 ft | 262 kts | 90° |
| 2026-05-05 00:30 | 21.22274 | -87.47143 | 3020 ft | 257 kts | 90° |
| 2026-05-05 00:31 | 21.22296 | -87.45216 | 2984 ft | 251 kts | 90° |
| 2026-05-05 00:31 | 21.22317 | -87.43424 | 2983 ft | 230 kts | 90° |
| 2026-05-05 00:31 | 21.22337 | -87.41733 | 2990 ft | 230 kts | 90° |
| 2026-05-05 00:31 | 21.22354 | -87.40019 | 2993 ft | 230 kts | 90° |
| 2026-05-05 00:32 | 21.22373 | -87.38319 | 2988 ft | 228 kts | 90° |
| 2026-05-05 00:32 | 21.22391 | -87.36614 | 2980 ft | 230 kts | 90° |
| 2026-05-05 00:32 | 21.22409 | -87.34907 | 2985 ft | 229 kts | 90° |
| 2026-05-05 00:32 | 21.22325 | -87.33215 | 2989 ft | 229 kts | 95° |
| 2026-05-05 00:33 | 21.22213 | -87.31515 | 2995 ft | 229 kts | 94° |
| 2026-05-05 00:33 | 21.22105 | -87.29808 | 2987 ft | 230 kts | 94° |
| 2026-05-05 00:33 | 21.21997 | -87.28090 | 2994 ft | 231 kts | 94° |
| 2026-05-05 00:33 | 21.21927 | -87.26957 | 2988 ft | 229 kts | 94° |
| 2026-05-05 00:34 | 21.21822 | -87.25251 | 2988 ft | 230 kts | 95° |
| 2026-05-05 00:34 | 21.21715 | -87.23552 | 2851 ft | 227 kts | 95° |
| 2026-05-05 00:34 | 21.21609 | -87.21875 | 2559 ft | 226 kts | 95° |
| 2026-05-05 00:34 | 21.21503 | -87.20195 | 2190 ft | 226 kts | 94° |
| 2026-05-05 00:35 | 21.21398 | -87.18544 | 2028 ft | 219 kts | 95° |
| 2026-05-05 00:35 | 21.21235 | -87.16886 | 1991 ft | 226 kts | 103° |
| 2026-05-05 00:35 | 21.20718 | -87.15308 | 1995 ft | 225 kts | 116° |
| 2026-05-05 00:35 | 21.19938 | -87.13847 | 1995 ft | 226 kts | 122° |
| 2026-05-05 00:36 | 21.19075 | -87.12453 | 1992 ft | 220 kts | 124° |
| 2026-05-05 00:36 | 21.18253 | -87.11140 | 1990 ft | 205 kts | 124° |
| 2026-05-05 00:36 | 21.17487 | -87.09912 | 2001 ft | 203 kts | 123° |
| 2026-05-05 00:36 | 21.16689 | -87.08629 | 2003 ft | 215 kts | 123° |
| 2026-05-05 00:37 | 21.15823 | -87.07237 | 2000 ft | 232 kts | 124° |
| 2026-05-05 00:37 | 21.14922 | -87.05792 | 2001 ft | 234 kts | 123° |
| 2026-05-05 00:37 | 21.14019 | -87.04337 | 1997 ft | 235 kts | 123° |
| 2026-05-05 00:37 | 21.13110 | -87.02876 | 2006 ft | 236 kts | 123° |
| 2026-05-05 00:38 | 21.12203 | -87.01421 | 2004 ft | 230 kts | 123° |
| 2026-05-05 00:38 | 21.11376 | -87.00096 | 1993 ft | 196 kts | 123° |
| 2026-05-05 00:38 | 21.10688 | -86.98991 | 2016 ft | 161 kts | 123° |
| 2026-05-05 00:38 | 21.10108 | -86.98058 | 2009 ft | 150 kts | 123° |
| 2026-05-05 00:39 | 21.09532 | -86.97134 | 2004 ft | 148 kts | 123° |
| 2026-05-05 00:39 | 21.08962 | -86.96219 | 1931 ft | 149 kts | 124° |
| 2026-05-05 00:39 | 21.08396 | -86.95303 | 1674 ft | 146 kts | 123° |
| 2026-05-05 00:39 | 21.07816 | -86.94405 | 1309 ft | 147 kts | 126° |
| 2026-05-05 00:40 | 21.07264 | -86.93526 | 1011 ft | 142 kts | 122° |
| 2026-05-05 00:40 | 21.06738 | -86.92607 | 817 ft | 143 kts | 122° |
| 2026-05-05 00:40 | 21.06194 | -86.91720 | 674 ft | 146 kts | 123° |
| 2026-05-05 00:40 | 21.05621 | -86.90836 | 462 ft | 145 kts | 124° |
| 2026-05-05 00:41 | 21.05069 | -86.89948 | 270 ft | 142 kts | 124° |
| 2026-05-05 00:41 | 21.04519 | -86.89070 | 83 ft | 140 kts | 124° |
| 2026-05-05 00:41 | 21.04007 | -86.88259 | 28 ft | 108 kts | 124° |
| 2026-05-05 00:41 | 21.03750 | -86.87854 | 29 ft | 37 kts | 125° |
| 2026-05-05 00:42 | 21.03623 | -86.87626 | 29 ft | 34 kts | 104° |
| 2026-05-05 00:42 | 21.03596 | -86.87400 | 29 ft | 18 kts | 87° |